Flight Track Log - Related Links

Times and Time Zones

All times are in EDT time to prevent confusion due to time zone crossing. See the MSR45 flight status page for this flight to view local times or setup timezone preferences in your user account.

Time Position Orientation Groundspeed Altitude Reporting Facility
EDT Latitude Longitude Course Direction KTS MPH feet Rate Location/Type
Thu 06:22:00 PM 27.2977 33.7055 325° Northwest  Level Estimated
Thu 06:23:00 PM 27.3569 33.6588 325° Northwest  Level Estimated
Thu 06:24:00 PM 27.4161 33.6121 325° Northwest  Level Estimated
Thu 06:25:00 PM 27.4753 33.5654 325° Northwest  Level Estimated
Thu 06:26:00 PM 27.5344 33.5186 325° Northwest  Level Estimated
Thu 06:27:00 PM 27.5935 33.4717 325° Northwest  Level Estimated
Thu 06:28:00 PM 27.6527 33.4248 325° Northwest  Level Estimated
Thu 06:29:00 PM 27.7118 33.3778 325° Northwest  Level Estimated
Thu 06:30:00 PM 27.7709 33.3308 325° Northwest  Level Estimated
Thu 06:31:00 PM 27.8299 33.2838 325° Northwest  Level Estimated
Thu 06:32:00 PM 27.8890 33.2366 325° Northwest  Level Estimated
Thu 06:33:00 PM 27.9480 33.1895 325° Northwest  Level Estimated
Thu 06:34:00 PM 28.0070 33.1423 325° Northwest  Level Estimated
Thu 06:35:00 PM 28.0660 33.0950 325° Northwest  Level Estimated
Thu 06:36:00 PM 28.1250 33.0477 325° Northwest  Level Estimated
Thu 06:37:00 PM 28.1840 33.0003 325° Northwest  Level Estimated
Thu 06:38:00 PM 28.2430 32.9529 325° Northwest  Level Estimated
Thu 06:39:00 PM 28.3019 32.9054 325° Northwest  Level Estimated
Thu 06:40:00 PM 28.3608 32.8579 325° Northwest  Level Estimated
Thu 06:41:00 PM 28.4197 32.8103 325° Northwest  Level Estimated
Thu 06:42:00 PM 28.4786 32.7627 325° Northwest  Level Estimated
Thu 06:43:00 PM 28.5375 32.7150 325° Northwest  Level Estimated
Thu 06:44:00 PM 28.5963 32.6672 325° Northwest  Level Estimated
Thu 06:45:00 PM 28.6552 32.6194 325° Northwest  Level Estimated
Thu 06:46:00 PM 28.7140 32.5716 325° Northwest  Level Estimated
Thu 06:47:00 PM 28.7728 32.5237 324° Northwest  Level Estimated
Thu 06:48:00 PM 28.8316 32.4757 324° Northwest  Level Estimated
Thu 06:49:00 PM 28.8904 32.4277 324° Northwest  Level Estimated
Thu 06:50:00 PM 28.9491 32.3797 324° Northwest  Level Estimated
Thu 06:51:00 PM 29.0079 32.3316 324° Northwest  Level Estimated
Thu 06:52:00 PM 29.0666 32.2834 324° Northwest  Level Estimated
Thu 06:53:00 PM 29.1253 32.2351 324° Northwest  Level Estimated
Thu 06:54:00 PM 29.1840 32.1869 324° Northwest  Level Estimated
Thu 06:55:00 PM 29.2427 32.1385 324° Northwest  Level Estimated
Thu 06:56:00 PM 29.3013 32.0901 324° Northwest  Level Estimated
Thu 06:57:00 PM 29.3599 32.0417 324° Northwest  Level Estimated
Thu 06:58:00 PM 29.4186 31.9932 324° Northwest  Level Estimated
Thu 06:59:00 PM 29.4772 31.9446 324° Northwest  Level Estimated
Thu 07:00:00 PM 29.5357 31.8960 324° Northwest  Level Estimated
Thu 07:01:00 PM 29.5943 31.8473 324° Northwest  Level Estimated
Thu 07:02:00 PM 29.6528 31.7986 324° Northwest  Level Estimated
Thu 07:03:00 PM 29.7114 31.7498 324° Northwest  Level Estimated
Thu 07:04:00 PM 29.7699 31.7010 324° Northwest  Level Estimated
Thu 07:05:00 PM 29.8284 31.6521 324° Northwest  Level Estimated
Thu 07:06:00 PM 29.8869 31.6031 324° Northwest  Level Estimated
Thu 07:07:00 PM 29.9453 31.5541 324° Northwest  Level Estimated
Thu 07:08:00 PM 30.0037 31.5050 324° Northwest  Level Estimated
Thu 07:09:00 PM 30.0622 31.4559 324° Northwest  Level Estimated
Thu 07:10:00 PM 30.1206 31.4067 324° Northwest  Level Estimated
Thu 07:11:00 PM 30.1219 31.4056 324° Northwest  Level Estimated
Thu 07:12:00 PM 30.1219 31.4056 319° Northwest  Level Estimated
Thu 07:13:00 PM 30.1219 31.4056 319° Northwest  Level Estimated
Thu 07:14:00 PM 30.1219 31.4056 319° Northwest  Level Estimated
Thu 07:15:00 PM 30.1219 31.4056 319° Northwest  Level Estimated
Thu 07:16:00 PM 30.1219 31.4056 319° Northwest  Level Estimated
Thu 07:17:00 PM 30.1219 31.4056 319° Northwest  Level Estimated
Thu 07:18:00 PM 30.1219 31.4056 319° Northwest  Level Estimated
Thu 07:19:00 PM 30.1219 31.4056 319° Northwest  Level Estimated
Thu 07:20:00 PM 30.1219 31.4056 319° Northwest  Level Estimated
Thu 07:21:00 PM 30.1219 31.4056 319° Northwest  Level Estimated
Thu 07:22:00 PM 30.1219 31.4056 319° Northwest  Level Estimated
Thu 07:23:00 PM 30.1219 31.4056 319° Northwest  Level Estimated
Thu 07:24:00 PM 30.1219 31.4056 319° Northwest  Level Estimated
Thu 07:25:00 PM 30.1219 31.4056 319° Northwest  Level Estimated
Thu 07:26:00 PM 30.1219 31.4056 319° Northwest  Level Estimated

Login

Don't have an account? Register now (free) for customized features, flight alerts, and more!